sensor_id;sensor_type;location;lat;lon;timestamp;pressure;altitude;pressure_sealevel;temperature
20058;BMP180;10189;49.546;7.906;2023-02-01T00:00:44;98710.00;;;7.70
20058;BMP180;10189;49.546;7.906;2023-02-01T00:03:09;98709.00;;;7.80
20058;BMP180;10189;49.546;7.906;2023-02-01T00:05:36;98711.00;;;7.70
20058;BMP180;10189;49.546;7.906;2023-02-01T00:08:02;98703.00;;;7.70
20058;BMP180;10189;49.546;7.906;2023-02-01T00:10:28;98683.00;;;7.70
20058;BMP180;10189;49.546;7.906;2023-02-01T00:12:54;98676.00;;;7.70
20058;BMP180;10189;49.546;7.906;2023-02-01T00:15:20;98674.00;;;7.70
20058;BMP180;10189;49.546;7.906;2023-02-01T00:17:46;98665.00;;;7.70
20058;BMP180;10189;49.546;7.906;2023-02-01T00:20:12;98668.00;;;7.70
20058;BMP180;10189;49.546;7.906;2023-02-01T00:22:38;98664.00;;;7.70
20058;BMP180;10189;49.546;7.906;2023-02-01T00:25:04;98665.00;;;7.70
20058;BMP180;10189;49.546;7.906;2023-02-01T00:27:30;98660.00;;;7.70
20058;BMP180;10189;49.546;7.906;2023-02-01T00:29:56;98657.00;;;7.70
20058;BMP180;10189;49.546;7.906;2023-02-01T00:32:22;98656.00;;;7.70
20058;BMP180;10189;49.546;7.906;2023-02-01T00:34:47;98664.00;;;7.70
20058;BMP180;10189;49.546;7.906;2023-02-01T00:37:13;98657.00;;;7.70
20058;BMP180;10189;49.546;7.906;2023-02-01T00:39:39;98660.00;;;7.80
20058;BMP180;10189;49.546;7.906;2023-02-01T00:42:05;98663.00;;;7.80
20058;BMP180;10189;49.546;7.906;2023-02-01T00:44:31;98657.00;;;7.80
20058;BMP180;10189;49.546;7.906;2023-02-01T00:47:03;98666.00;;;7.80
20058;BMP180;10189;49.546;7.906;2023-02-01T00:49:29;98666.00;;;7.80
20058;BMP180;10189;49.546;7.906;2023-02-01T00:51:55;98659.00;;;7.90
20058;BMP180;10189;49.546;7.906;2023-02-01T00:54:21;98655.00;;;7.80
20058;BMP180;10189;49.546;7.906;2023-02-01T00:56:47;98658.00;;;7.80
20058;BMP180;10189;49.546;7.906;2023-02-01T00:59:13;98658.00;;;7.80
20058;BMP180;10189;49.546;7.906;2023-02-01T01:01:39;98647.00;;;7.70
20058;BMP180;10189;49.546;7.906;2023-02-01T01:04:05;98650.00;;;7.80
20058;BMP180;10189;49.546;7.906;2023-02-01T01:06:33;98650.00;;;7.80
20058;BMP180;10189;49.546;7.906;2023-02-01T01:09:02;98643.00;;;7.80
20058;BMP180;10189;49.546;7.906;2023-02-01T01:11:31;98649.00;;;7.80
20058;BMP180;10189;49.546;7.906;2023-02-01T01:14:00;98646.00;;;7.80
20058;BMP180;10189;49.546;7.906;2023-02-01T01:16:29;98654.00;;;7.80
20058;BMP180;10189;49.546;7.906;2023-02-01T01:18:56;98648.00;;;7.80
20058;BMP180;10189;49.546;7.906;2023-02-01T01:21:23;98642.00;;;7.80
20058;BMP180;10189;49.546;7.906;2023-02-01T01:23:49;98640.00;;;7.80
20058;BMP180;10189;49.546;7.906;2023-02-01T01:26:19;98637.00;;;7.70
20058;BMP180;10189;49.546;7.906;2023-02-01T01:28:46;98642.00;;;7.70
20058;BMP180;10189;49.546;7.906;2023-02-01T01:31:15;98648.00;;;7.80
20058;BMP180;10189;49.546;7.906;2023-02-01T01:33:42;98654.00;;;7.80
20058;BMP180;10189;49.546;7.906;2023-02-01T01:36:11;98655.00;;;7.80
20058;BMP180;10189;49.546;7.906;2023-02-01T01:38:40;98652.00;;;7.80
20058;BMP180;10189;49.546;7.906;2023-02-01T01:41:07;98651.00;;;7.80
20058;BMP180;10189;49.546;7.906;2023-02-01T01:43:56;98652.00;;;7.80
20058;BMP180;10189;49.546;7.906;2023-02-01T01:46:30;98654.00;;;7.80
20058;BMP180;10189;49.546;7.906;2023-02-01T01:49:12;98648.00;;;7.80
20058;BMP180;10189;49.546;7.906;2023-02-01T01:51:47;98630.00;;;7.80
20058;BMP180;10189;49.546;7.906;2023-02-01T01:54:21;98644.00;;;7.80
20058;BMP180;10189;49.546;7.906;2023-02-01T01:56:54;98627.00;;;7.80
20058;BMP180;10189;49.546;7.906;2023-02-01T01:59:23;98636.00;;;7.80
20058;BMP180;10189;49.546;7.906;2023-02-01T02:01:50;98638.00;;;7.70
20058;BMP180;10189;49.546;7.906;2023-02-01T02:04:17;98632.00;;;7.80
20058;BMP180;10189;49.546;7.906;2023-02-01T02:06:52;98627.00;;;7.70
20058;BMP180;10189;49.546;7.906;2023-02-01T02:09:22;98618.00;;;7.80
20058;BMP180;10189;49.546;7.906;2023-02-01T02:11:48;98619.00;;;7.70
20058;BMP180;10189;49.546;7.906;2023-02-01T02:14:17;98629.00;;;7.70
20058;BMP180;10189;49.546;7.906;2023-02-01T02:19:37;98635.00;;;7.80
20058;BMP180;10189;49.546;7.906;2023-02-01T02:28:25;98604.00;;;7.80
20058;BMP180;10189;49.546;7.906;2023-02-01T02:34:14;98580.00;;;7.80
20058;BMP180;10189;49.546;7.906;2023-02-01T02:40:04;98584.00;;;7.80
20058;BMP180;10189;49.546;7.906;2023-02-01T02:45:55;98576.00;;;7.80
20058;BMP180;10189;49.546;7.906;2023-02-01T02:52:09;98579.00;;;7.80
20058;BMP180;10189;49.546;7.906;2023-02-01T02:54:58;98570.00;;;7.80
20058;BMP180;10189;49.546;7.906;2023-02-01T02:57:32;98586.00;;;7.70
20058;BMP180;10189;49.546;7.906;2023-02-01T03:00:22;98581.00;;;7.80
20058;BMP180;10189;49.546;7.906;2023-02-01T03:03:08;98578.00;;;7.80
20058;BMP180;10189;49.546;7.906;2023-02-01T03:05:53;98569.00;;;7.80
20058;BMP180;10189;49.546;7.906;2023-02-01T03:11:06;98580.00;;;7.80
20058;BMP180;10189;49.546;7.906;2023-02-01T03:13:45;98576.00;;;7.80
20058;BMP180;10189;49.546;7.906;2023-02-01T03:16:43;98566.00;;;7.90
20058;BMP180;10189;49.546;7.906;2023-02-01T03:21:50;98559.00;;;7.80
20058;BMP180;10189;49.546;7.906;2023-02-01T03:24:25;98568.00;;;7.80
20058;BMP180;10189;49.546;7.906;2023-02-01T03:29:56;98558.00;;;7.90
20058;BMP180;10189;49.546;7.906;2023-02-01T03:32:23;98583.00;;;7.90
20058;BMP180;10189;49.546;7.906;2023-02-01T03:34:50;98604.00;;;7.90
20058;BMP180;10189;49.546;7.906;2023-02-01T03:37:31;98597.00;;;7.90
20058;BMP180;10189;49.546;7.906;2023-02-01T03:40:08;98602.00;;;7.90
20058;BMP180;10189;49.546;7.906;2023-02-01T03:42:53;98610.00;;;7.90
20058;BMP180;10189;49.546;7.906;2023-02-01T03:45:44;98605.00;;;7.90
20058;BMP180;10189;49.546;7.906;2023-02-01T03:48:13;98605.00;;;7.90
20058;BMP180;10189;49.546;7.906;2023-02-01T03:50:48;98613.00;;;7.90
20058;BMP180;10189;49.546;7.906;2023-02-01T03:53:20;98598.00;;;8.00
20058;BMP180;10189;49.546;7.906;2023-02-01T03:55:49;98592.00;;;7.90
20058;BMP180;10189;49.546;7.906;2023-02-01T03:58:20;98568.00;;;7.90
20058;BMP180;10189;49.546;7.906;2023-02-01T04:00:56;98576.00;;;7.90
20058;BMP180;10189;49.546;7.906;2023-02-01T04:03:25;98582.00;;;7.90
20058;BMP180;10189;49.546;7.906;2023-02-01T04:05:52;98580.00;;;7.90
20058;BMP180;10189;49.546;7.906;2023-02-01T04:08:22;98581.00;;;7.90
20058;BMP180;10189;49.546;7.906;2023-02-01T04:10:48;98591.00;;;7.90
20058;BMP180;10189;49.546;7.906;2023-02-01T04:13:14;98578.00;;;7.90
20058;BMP180;10189;49.546;7.906;2023-02-01T04:15:40;98595.00;;;7.90
20058;BMP180;10189;49.546;7.906;2023-02-01T04:18:06;98588.00;;;7.90
20058;BMP180;10189;49.546;7.906;2023-02-01T04:20:32;98597.00;;;7.90
20058;BMP180;10189;49.546;7.906;2023-02-01T04:22:58;98596.00;;;7.80
20058;BMP180;10189;49.546;7.906;2023-02-01T04:25:24;98599.00;;;7.90
20058;BMP180;10189;49.546;7.906;2023-02-01T04:27:51;98604.00;;;7.90
20058;BMP180;10189;49.546;7.906;2023-02-01T04:30:17;98601.00;;;7.90
20058;BMP180;10189;49.546;7.906;2023-02-01T04:32:43;98592.00;;;7.90
20058;BMP180;10189;49.546;7.906;2023-02-01T04:35:09;98599.00;;;7.90
20058;BMP180;10189;49.546;7.906;2023-02-01T04:37:35;98596.00;;;7.90
20058;BMP180;10189;49.546;7.906;2023-02-01T04:40:01;98606.00;;;7.90
20058;BMP180;10189;49.546;7.906;2023-02-01T04:42:29;98602.00;;;7.90
20058;BMP180;10189;49.546;7.906;2023-02-01T04:44:55;98604.00;;;7.80
20058;BMP180;10189;49.546;7.906;2023-02-01T04:47:21;98609.00;;;7.80
20058;BMP180;10189;49.546;7.906;2023-02-01T04:49:46;98604.00;;;7.70
20058;BMP180;10189;49.546;7.906;2023-02-01T04:52:12;98606.00;;;7.70
20058;BMP180;10189;49.546;7.906;2023-02-01T04:54:38;98608.00;;;7.60
20058;BMP180;10189;49.546;7.906;2023-02-01T04:57:04;98610.00;;;7.60
20058;BMP180;10189;49.546;7.906;2023-02-01T04:59:30;98612.00;;;7.60
20058;BMP180;10189;49.546;7.906;2023-02-01T05:01:55;98609.00;;;7.50
20058;BMP180;10189;49.546;7.906;2023-02-01T05:04:21;98624.00;;;7.50
20058;BMP180;10189;49.546;7.906;2023-02-01T05:06:47;98621.00;;;7.50
20058;BMP180;10189;49.546;7.906;2023-02-01T05:09:13;98617.00;;;7.50
20058;BMP180;10189;49.546;7.906;2023-02-01T05:11:39;98616.00;;;7.50
20058;BMP180;10189;49.546;7.906;2023-02-01T05:14:23;98611.00;;;7.50
20058;BMP180;10189;49.546;7.906;2023-02-01T05:16:49;98609.00;;;7.50
20058;BMP180;10189;49.546;7.906;2023-02-01T05:19:15;98607.00;;;7.60
20058;BMP180;10189;49.546;7.906;2023-02-01T05:21:41;98618.00;;;7.60
20058;BMP180;10189;49.546;7.906;2023-02-01T05:24:08;98608.00;;;7.60
20058;BMP180;10189;49.546;7.906;2023-02-01T05:26:45;98611.00;;;7.60
20058;BMP180;10189;49.546;7.906;2023-02-01T05:29:11;98609.00;;;7.60
20058;BMP180;10189;49.546;7.906;2023-02-01T05:31:38;98622.00;;;7.50
20058;BMP180;10189;49.546;7.906;2023-02-01T05:34:04;98611.00;;;7.70
20058;BMP180;10189;49.546;7.906;2023-02-01T05:36:31;98605.00;;;7.60
20058;BMP180;10189;49.546;7.906;2023-02-01T05:38:57;98587.00;;;7.50
20058;BMP180;10189;49.546;7.906;2023-02-01T05:41:23;98589.00;;;7.50
20058;BMP180;10189;49.546;7.906;2023-02-01T05:43:49;98592.00;;;7.50
20058;BMP180;10189;49.546;7.906;2023-02-01T05:46:15;98588.00;;;7.40
20058;BMP180;10189;49.546;7.906;2023-02-01T05:48:41;98581.00;;;7.50
20058;BMP180;10189;49.546;7.906;2023-02-01T05:51:09;98582.00;;;7.40
20058;BMP180;10189;49.546;7.906;2023-02-01T05:53:35;98586.00;;;7.40
20058;BMP180;10189;49.546;7.906;2023-02-01T05:56:01;98593.00;;;7.40
20058;BMP180;10189;49.546;7.906;2023-02-01T05:58:27;98600.00;;;7.40
20058;BMP180;10189;49.546;7.906;2023-02-01T06:00:53;98600.00;;;7.50
20058;BMP180;10189;49.546;7.906;2023-02-01T06:03:19;98615.00;;;7.50
20058;BMP180;10189;49.546;7.906;2023-02-01T06:05:46;98605.00;;;7.50
20058;BMP180;10189;49.546;7.906;2023-02-01T06:08:13;98619.00;;;7.50
20058;BMP180;10189;49.546;7.906;2023-02-01T06:10:40;98619.00;;;7.50
20058;BMP180;10189;49.546;7.906;2023-02-01T06:13:06;98622.00;;;7.50
20058;BMP180;10189;49.546;7.906;2023-02-01T06:15:32;98613.00;;;7.60
20058;BMP180;10189;49.546;7.906;2023-02-01T06:17:58;98623.00;;;7.60
20058;BMP180;10189;49.546;7.906;2023-02-01T06:20:24;98632.00;;;7.60
20058;BMP180;10189;49.546;7.906;2023-02-01T06:22:50;98618.00;;;7.70
20058;BMP180;10189;49.546;7.906;2023-02-01T06:25:16;98619.00;;;7.60
20058;BMP180;10189;49.546;7.906;2023-02-01T06:27:42;98628.00;;;7.50
20058;BMP180;10189;49.546;7.906;2023-02-01T06:30:11;98622.00;;;7.50
20058;BMP180;10189;49.546;7.906;2023-02-01T06:32:42;98621.00;;;7.50
20058;BMP180;10189;49.546;7.906;2023-02-01T06:35:09;98628.00;;;7.50
20058;BMP180;10189;49.546;7.906;2023-02-01T06:37:42;98635.00;;;7.50
20058;BMP180;10189;49.546;7.906;2023-02-01T06:40:09;98615.00;;;7.50
20058;BMP180;10189;49.546;7.906;2023-02-01T06:42:35;98622.00;;;7.40
20058;BMP180;10189;49.546;7.906;2023-02-01T06:45:01;98634.00;;;7.40
20058;BMP180;10189;49.546;7.906;2023-02-01T06:47:27;98635.00;;;7.40
20058;BMP180;10189;49.546;7.906;2023-02-01T06:49:52;98624.00;;;7.40
20058;BMP180;10189;49.546;7.906;2023-02-01T06:52:18;98638.00;;;7.40
20058;BMP180;10189;49.546;7.906;2023-02-01T06:54:44;98654.00;;;7.50
20058;BMP180;10189;49.546;7.906;2023-02-01T06:57:10;98639.00;;;7.40
20058;BMP180;10189;49.546;7.906;2023-02-01T06:59:36;98643.00;;;7.40
20058;BMP180;10189;49.546;7.906;2023-02-01T07:02:02;98638.00;;;7.40
20058;BMP180;10189;49.546;7.906;2023-02-01T07:04:28;98638.00;;;7.50
20058;BMP180;10189;49.546;7.906;2023-02-01T07:06:54;98638.00;;;7.50
20058;BMP180;10189;49.546;7.906;2023-02-01T07:09:20;98631.00;;;7.50
20058;BMP180;10189;49.546;7.906;2023-02-01T07:11:46;98627.00;;;7.40
20058;BMP180;10189;49.546;7.906;2023-02-01T07:14:12;98629.00;;;7.40
20058;BMP180;10189;49.546;7.906;2023-02-01T07:16:38;98628.00;;;7.40
20058;BMP180;10189;49.546;7.906;2023-02-01T07:19:05;98637.00;;;7.40
20058;BMP180;10189;49.546;7.906;2023-02-01T07:21:31;98633.00;;;7.40
20058;BMP180;10189;49.546;7.906;2023-02-01T07:23:58;98627.00;;;7.50
20058;BMP180;10189;49.546;7.906;2023-02-01T07:26:24;98618.00;;;7.50
20058;BMP180;10189;49.546;7.906;2023-02-01T07:28:50;98612.00;;;7.40
20058;BMP180;10189;49.546;7.906;2023-02-01T07:31:18;98598.00;;;7.50
20058;BMP180;10189;49.546;7.906;2023-02-01T07:33:49;98618.00;;;7.50
20058;BMP180;10189;49.546;7.906;2023-02-01T07:36:18;98616.00;;;7.40
20058;BMP180;10189;49.546;7.906;2023-02-01T07:38:45;98621.00;;;7.40
20058;BMP180;10189;49.546;7.906;2023-02-01T07:41:12;98622.00;;;7.50
20058;BMP180;10189;49.546;7.906;2023-02-01T07:43:38;98636.00;;;7.50
20058;BMP180;10189;49.546;7.906;2023-02-01T07:46:05;98628.00;;;7.60
20058;BMP180;10189;49.546;7.906;2023-02-01T07:48:32;98632.00;;;7.60
20058;BMP180;10189;49.546;7.906;2023-02-01T07:51:10;98644.00;;;7.60
20058;BMP180;10189;49.546;7.906;2023-02-01T07:53:37;98635.00;;;7.60
20058;BMP180;10189;49.546;7.906;2023-02-01T07:56:10;98638.00;;;7.60
20058;BMP180;10189;49.546;7.906;2023-02-01T07:58:36;98632.00;;;7.70
20058;BMP180;10189;49.546;7.906;2023-02-01T08:01:02;98651.00;;;7.60
20058;BMP180;10189;49.546;7.906;2023-02-01T08:03:49;98652.00;;;7.60
20058;BMP180;10189;49.546;7.906;2023-02-01T08:06:16;98654.00;;;7.60
20058;BMP180;10189;49.546;7.906;2023-02-01T08:08:42;98656.00;;;7.70
20058;BMP180;10189;49.546;7.906;2023-02-01T08:11:10;98659.00;;;7.70
20058;BMP180;10189;49.546;7.906;2023-02-01T08:13:36;98663.00;;;7.80
20058;BMP180;10189;49.546;7.906;2023-02-01T08:16:06;98651.00;;;7.80
20058;BMP180;10189;49.546;7.906;2023-02-01T08:18:33;98667.00;;;7.70
20058;BMP180;10189;49.546;7.906;2023-02-01T08:21:12;98670.00;;;7.80
20058;BMP180;10189;49.546;7.906;2023-02-01T08:23:40;98672.00;;;7.70
20058;BMP180;10189;49.546;7.906;2023-02-01T08:28:52;98673.00;;;7.60
20058;BMP180;10189;49.546;7.906;2023-02-01T08:31:21;98663.00;;;7.80
20058;BMP180;10189;49.546;7.906;2023-02-01T08:33:55;98664.00;;;7.90
20058;BMP180;10189;49.546;7.906;2023-02-01T08:36:23;98663.00;;;8.10
20058;BMP180;10189;49.546;7.906;2023-02-01T08:38:49;98665.00;;;8.20
20058;BMP180;10189;49.546;7.906;2023-02-01T08:41:19;98669.00;;;8.30
20058;BMP180;10189;49.546;7.906;2023-02-01T08:43:46;98658.00;;;8.30
20058;BMP180;10189;49.546;7.906;2023-02-01T08:46:14;98657.00;;;8.40
20058;BMP180;10189;49.546;7.906;2023-02-01T08:48:40;98657.00;;;8.60
20058;BMP180;10189;49.546;7.906;2023-02-01T08:51:12;98666.00;;;8.60
20058;BMP180;10189;49.546;7.906;2023-02-01T08:53:39;98650.00;;;8.50
20058;BMP180;10189;49.546;7.906;2023-02-01T08:56:14;98645.00;;;8.30
20058;BMP180;10189;49.546;7.906;2023-02-01T08:58:40;98643.00;;;8.50
20058;BMP180;10189;49.546;7.906;2023-02-01T09:01:10;98640.00;;;8.40
20058;BMP180;10189;49.546;7.906;2023-02-01T09:03:36;98646.00;;;8.40
20058;BMP180;10189;49.546;7.906;2023-02-01T09:06:04;98647.00;;;8.40
20058;BMP180;10189;49.546;7.906;2023-02-01T09:08:32;98659.00;;;8.50
20058;BMP180;10189;49.546;7.906;2023-02-01T09:11:00;98658.00;;;8.70
20058;BMP180;10189;49.546;7.906;2023-02-01T09:13:27;98656.00;;;8.70
20058;BMP180;10189;49.546;7.906;2023-02-01T09:15:53;98659.00;;;8.80
20058;BMP180;10189;49.546;7.906;2023-02-01T09:18:20;98645.00;;;8.70
20058;BMP180;10189;49.546;7.906;2023-02-01T09:20:46;98656.00;;;8.70
20058;BMP180;10189;49.546;7.906;2023-02-01T09:23:11;98663.00;;;8.80
20058;BMP180;10189;49.546;7.906;2023-02-01T09:25:38;98678.00;;;8.70
20058;BMP180;10189;49.546;7.906;2023-02-01T09:28:05;98687.00;;;8.80
20058;BMP180;10189;49.546;7.906;2023-02-01T09:30:36;98677.00;;;9.00
20058;BMP180;10189;49.546;7.906;2023-02-01T09:33:03;98689.00;;;8.90
20058;BMP180;10189;49.546;7.906;2023-02-01T09:35:29;98698.00;;;8.80
20058;BMP180;10189;49.546;7.906;2023-02-01T09:37:55;98703.00;;;8.80
20058;BMP180;10189;49.546;7.906;2023-02-01T09:40:21;98705.00;;;8.80
20058;BMP180;10189;49.546;7.906;2023-02-01T09:43:36;98708.00;;;8.60
20058;BMP180;10189;49.546;7.906;2023-02-01T09:46:31;98721.00;;;8.50
20058;BMP180;10189;49.546;7.906;2023-02-01T09:49:11;98728.00;;;8.50
20058;BMP180;10189;49.546;7.906;2023-02-01T09:51:43;98728.00;;;8.70
20058;BMP180;10189;49.546;7.906;2023-02-01T09:57:24;98731.00;;;8.60
20058;BMP180;10189;49.546;7.906;2023-02-01T10:00:09;98743.00;;;8.70
20058;BMP180;10189;49.546;7.906;2023-02-01T10:02:42;98735.00;;;8.60
20058;BMP180;10189;49.546;7.906;2023-02-01T10:05:16;98730.00;;;8.60
20058;BMP180;10189;49.546;7.906;2023-02-01T10:11:21;98738.00;;;8.70
20058;BMP180;10189;49.546;7.906;2023-02-01T10:16:53;98736.00;;;8.80
20058;BMP180;10189;49.546;7.906;2023-02-01T10:19:45;98745.00;;;8.70
20058;BMP180;10189;49.546;7.906;2023-02-01T10:22:45;98740.00;;;8.60
20058;BMP180;10189;49.546;7.906;2023-02-01T10:25:36;98739.00;;;8.80
20058;BMP180;10189;49.546;7.906;2023-02-01T10:28:03;98739.00;;;8.80
20058;BMP180;10189;49.546;7.906;2023-02-01T10:31:00;98752.00;;;8.80
20058;BMP180;10189;49.546;7.906;2023-02-01T10:36:40;98753.00;;;9.00
20058;BMP180;10189;49.546;7.906;2023-02-01T10:39:10;98746.00;;;8.90
20058;BMP180;10189;49.546;7.906;2023-02-01T10:41:40;98733.00;;;9.20
20058;BMP180;10189;49.546;7.906;2023-02-01T10:44:17;98731.00;;;9.30
20058;BMP180;10189;49.546;7.906;2023-02-01T10:46:45;98719.00;;;9.20
20058;BMP180;10189;49.546;7.906;2023-02-01T10:52:36;98711.00;;;9.30
20058;BMP180;10189;49.546;7.906;2023-02-01T10:55:43;98704.00;;;9.20
20058;BMP180;10189;49.546;7.906;2023-02-01T10:58:25;98714.00;;;9.30
20058;BMP180;10189;49.546;7.906;2023-02-01T11:05:56;98695.00;;;8.90
20058;BMP180;10189;49.546;7.906;2023-02-01T11:08:22;98698.00;;;8.80
20058;BMP180;10189;49.546;7.906;2023-02-01T11:11:02;98702.00;;;8.70
20058;BMP180;10189;49.546;7.906;2023-02-01T11:13:37;98706.00;;;8.70
20058;BMP180;10189;49.546;7.906;2023-02-01T11:16:05;98704.00;;;8.70
20058;BMP180;10189;49.546;7.906;2023-02-01T11:18:37;98697.00;;;8.60
20058;BMP180;10189;49.546;7.906;2023-02-01T11:21:05;98695.00;;;8.70
20058;BMP180;10189;49.546;7.906;2023-02-01T11:23:33;98699.00;;;8.70
20058;BMP180;10189;49.546;7.906;2023-02-01T11:26:14;98706.00;;;8.50
20058;BMP180;10189;49.546;7.906;2023-02-01T11:28:51;98676.00;;;8.50
20058;BMP180;10189;49.546;7.906;2023-02-01T11:31:18;98690.00;;;8.40
20058;BMP180;10189;49.546;7.906;2023-02-01T11:33:52;98684.00;;;8.30
20058;BMP180;10189;49.546;7.906;2023-02-01T11:36:25;98702.00;;;8.20
20058;BMP180;10189;49.546;7.906;2023-02-01T11:44:37;98692.00;;;8.30
20058;BMP180;10189;49.546;7.906;2023-02-01T11:47:40;98698.00;;;8.30
20058;BMP180;10189;49.546;7.906;2023-02-01T11:50:39;98690.00;;;8.40
20058;BMP180;10189;49.546;7.906;2023-02-01T11:56:37;98698.00;;;8.30
20058;BMP180;10189;49.546;7.906;2023-02-01T12:08:48;98707.00;;;8.30
20058;BMP180;10189;49.546;7.906;2023-02-01T12:11:51;98706.00;;;8.30
20058;BMP180;10189;49.546;7.906;2023-02-01T12:17:51;98699.00;;;8.30
20058;BMP180;10189;49.546;7.906;2023-02-01T12:33:03;98684.00;;;8.40
20058;BMP180;10189;49.546;7.906;2023-02-01T12:38:57;98672.00;;;8.40
20058;BMP180;10189;49.546;7.906;2023-02-01T12:42:10;98669.00;;;8.30
20058;BMP180;10189;49.546;7.906;2023-02-01T12:44:56;98663.00;;;8.20
20058;BMP180;10189;49.546;7.906;2023-02-01T12:47:41;98652.00;;;8.30
20058;BMP180;10189;49.546;7.906;2023-02-01T12:50:29;98653.00;;;8.30
20058;BMP180;10189;49.546;7.906;2023-02-01T12:56:02;98639.00;;;8.40
20058;BMP180;10189;49.546;7.906;2023-02-01T12:58:50;98636.00;;;8.50
20058;BMP180;10189;49.546;7.906;2023-02-01T13:01:36;98619.00;;;8.40
20058;BMP180;10189;49.546;7.906;2023-02-01T13:04:26;98633.00;;;8.50
20058;BMP180;10189;49.546;7.906;2023-02-01T13:07:31;98619.00;;;8.40
20058;BMP180;10189;49.546;7.906;2023-02-01T13:13:44;98605.00;;;8.50
20058;BMP180;10189;49.546;7.906;2023-02-01T13:16:37;98597.00;;;8.40
20058;BMP180;10189;49.546;7.906;2023-02-01T13:19:56;98596.00;;;8.40
20058;BMP180;10189;49.546;7.906;2023-02-01T13:22:25;98607.00;;;8.40
20058;BMP180;10189;49.546;7.906;2023-02-01T13:25:21;98595.00;;;8.50
20058;BMP180;10189;49.546;7.906;2023-02-01T13:27:50;98590.00;;;8.50
20058;BMP180;10189;49.546;7.906;2023-02-01T13:30:30;98611.00;;;8.50
20058;BMP180;10189;49.546;7.906;2023-02-01T13:33:23;98599.00;;;8.50
20058;BMP180;10189;49.546;7.906;2023-02-01T13:47:29;98621.00;;;8.60
20058;BMP180;10189;49.546;7.906;2023-02-01T13:50:01;98619.00;;;8.70
20058;BMP180;10189;49.546;7.906;2023-02-01T13:52:43;98622.00;;;8.60
20058;BMP180;10189;49.546;7.906;2023-02-01T13:55:23;98598.00;;;8.70
20058;BMP180;10189;49.546;7.906;2023-02-01T13:58:01;98602.00;;;8.70
20058;BMP180;10189;49.546;7.906;2023-02-01T14:00:29;98619.00;;;8.70
20058;BMP180;10189;49.546;7.906;2023-02-01T14:03:08;98601.00;;;8.60
20058;BMP180;10189;49.546;7.906;2023-02-01T14:10:54;98594.00;;;8.80
20058;BMP180;10189;49.546;7.906;2023-02-01T14:13:39;98604.00;;;8.90
20058;BMP180;10189;49.546;7.906;2023-02-01T14:23:45;98600.00;;;8.90
20058;BMP180;10189;49.546;7.906;2023-02-01T14:26:23;98609.00;;;8.80
20058;BMP180;10189;49.546;7.906;2023-02-01T14:29:02;98607.00;;;8.80
20058;BMP180;10189;49.546;7.906;2023-02-01T14:31:52;98609.00;;;8.70
20058;BMP180;10189;49.546;7.906;2023-02-01T14:37:28;98624.00;;;8.70
20058;BMP180;10189;49.546;7.906;2023-02-01T14:55:51;98596.00;;;9.00
20058;BMP180;10189;49.546;7.906;2023-02-01T15:01:13;98607.00;;;8.90
20058;BMP180;10189;49.546;7.906;2023-02-01T15:03:56;98603.00;;;8.90
20058;BMP180;10189;49.546;7.906;2023-02-01T15:06:51;98609.00;;;9.10
20058;BMP180;10189;49.546;7.906;2023-02-01T15:09:48;98603.00;;;9.00
20058;BMP180;10189;49.546;7.906;2023-02-01T15:12:40;98622.00;;;9.10
20058;BMP180;10189;49.546;7.906;2023-02-01T15:15:21;98608.00;;;9.20
20058;BMP180;10189;49.546;7.906;2023-02-01T15:17:57;98611.00;;;9.10
20058;BMP180;10189;49.546;7.906;2023-02-01T15:20:31;98613.00;;;9.10
20058;BMP180;10189;49.546;7.906;2023-02-01T15:23:00;98620.00;;;9.00
20058;BMP180;10189;49.546;7.906;2023-02-01T15:25:34;98610.00;;;8.90
20058;BMP180;10189;49.546;7.906;2023-02-01T15:28:02;98614.00;;;8.90
20058;BMP180;10189;49.546;7.906;2023-02-01T15:30:32;98604.00;;;8.90
20058;BMP180;10189;49.546;7.906;2023-02-01T15:33:18;98611.00;;;8.80
20058;BMP180;10189;49.546;7.906;2023-02-01T15:38:31;98619.00;;;8.80
20058;BMP180;10189;49.546;7.906;2023-02-01T15:41:19;98632.00;;;8.70
20058;BMP180;10189;49.546;7.906;2023-02-01T15:46:42;98631.00;;;8.60
20058;BMP180;10189;49.546;7.906;2023-02-01T15:49:31;98641.00;;;8.60
20058;BMP180;10189;49.546;7.906;2023-02-01T15:52:02;98634.00;;;8.60
20058;BMP180;10189;49.546;7.906;2023-02-01T15:54:42;98623.00;;;8.60
20058;BMP180;10189;49.546;7.906;2023-02-01T15:57:09;98634.00;;;8.50
20058;BMP180;10189;49.546;7.906;2023-02-01T15:59:45;98626.00;;;8.30
20058;BMP180;10189;49.546;7.906;2023-02-01T16:02:42;98633.00;;;8.40
20058;BMP180;10189;49.546;7.906;2023-02-01T16:05:40;98625.00;;;8.30
20058;BMP180;10189;49.546;7.906;2023-02-01T16:08:19;98624.00;;;8.20
20058;BMP180;10189;49.546;7.906;2023-02-01T16:10:48;98616.00;;;8.10
20058;BMP180;10189;49.546;7.906;2023-02-01T16:13:16;98619.00;;;8.10
20058;BMP180;10189;49.546;7.906;2023-02-01T16:15:43;98619.00;;;8.00
20058;BMP180;10189;49.546;7.906;2023-02-01T16:18:10;98625.00;;;7.90
20058;BMP180;10189;49.546;7.906;2023-02-01T16:20:38;98635.00;;;7.90
20058;BMP180;10189;49.546;7.906;2023-02-01T16:23:06;98642.00;;;8.00
20058;BMP180;10189;49.546;7.906;2023-02-01T16:25:32;98658.00;;;8.00
20058;BMP180;10189;49.546;7.906;2023-02-01T16:27:58;98656.00;;;8.10
20058;BMP180;10189;49.546;7.906;2023-02-01T16:30:24;98665.00;;;8.10
20058;BMP180;10189;49.546;7.906;2023-02-01T16:32:59;98658.00;;;8.20
20058;BMP180;10189;49.546;7.906;2023-02-01T16:35:36;98667.00;;;8.30
20058;BMP180;10189;49.546;7.906;2023-02-01T16:38:13;98660.00;;;8.30
20058;BMP180;10189;49.546;7.906;2023-02-01T16:40:41;98675.00;;;8.20
20058;BMP180;10189;49.546;7.906;2023-02-01T16:43:23;98670.00;;;8.30
20058;BMP180;10189;49.546;7.906;2023-02-01T16:45:52;98664.00;;;8.20
20058;BMP180;10189;49.546;7.906;2023-02-01T16:48:24;98658.00;;;8.30
20058;BMP180;10189;49.546;7.906;2023-02-01T16:50:56;98660.00;;;8.30
20058;BMP180;10189;49.546;7.906;2023-02-01T16:53:24;98662.00;;;8.20
20058;BMP180;10189;49.546;7.906;2023-02-01T16:55:51;98650.00;;;8.20
20058;BMP180;10189;49.546;7.906;2023-02-01T16:58:19;98649.00;;;8.20
20058;BMP180;10189;49.546;7.906;2023-02-01T17:00:47;98648.00;;;8.10
20058;BMP180;10189;49.546;7.906;2023-02-01T17:03:13;98646.00;;;8.10
20058;BMP180;10189;49.546;7.906;2023-02-01T17:06:02;98655.00;;;8.10
20058;BMP180;10189;49.546;7.906;2023-02-01T17:08:38;98646.00;;;8.10
20058;BMP180;10189;49.546;7.906;2023-02-01T17:11:06;98644.00;;;8.10
20058;BMP180;10189;49.546;7.906;2023-02-01T17:13:33;98641.00;;;8.30
20058;BMP180;10189;49.546;7.906;2023-02-01T17:18:42;98639.00;;;8.20
20058;BMP180;10189;49.546;7.906;2023-02-01T17:21:10;98646.00;;;8.30
20058;BMP180;10189;49.546;7.906;2023-02-01T17:23:36;98640.00;;;8.30